KCAR 280454Z AUTO 17007KT 10SM CLR 11/02 A3013 RMK AO2 SLP207 T01060022 401940022